sensor_id;sensor_type;location;lat;lon;timestamp;pressure;altitude;pressure_sealevel;temperature;humidity
54306;BME280;66145;45.188;5.712;2023-03-01T00:02:05;99419.88;;;18.71;35.64
54306;BME280;66145;45.188;5.712;2023-03-01T00:04:31;99479.28;;;18.98;35.45
54306;BME280;66145;45.188;5.712;2023-03-01T00:06:57;99467.31;;;18.94;35.37
54306;BME280;66145;45.188;5.712;2023-03-01T00:09:22;99483.41;;;19.10;35.38
54306;BME280;66145;45.188;5.712;2023-03-01T00:11:48;99460.94;;;18.99;35.56
54306;BME280;66145;45.188;5.712;2023-03-01T00:14:14;99485.03;;;19.11;35.52
54306;BME280;66145;45.188;5.712;2023-03-01T00:16:42;99492.19;;;19.21;35.22
54306;BME280;66145;45.188;5.712;2023-03-01T00:19:15;99474.38;;;19.09;35.26
54306;BME280;66145;45.188;5.712;2023-03-01T00:21:41;99491.56;;;19.24;35.51
54306;BME280;66145;45.188;5.712;2023-03-01T00:24:08;99439.41;;;18.92;35.39
54306;BME280;66145;45.188;5.712;2023-03-01T00:26:33;99463.09;;;19.11;35.30
54306;BME280;66145;45.188;5.712;2023-03-01T00:29:00;99456.94;;;19.05;35.36
54306;BME280;66145;45.188;5.712;2023-03-01T00:31:28;99459.38;;;19.07;35.40
54306;BME280;66145;45.188;5.712;2023-03-01T00:33:59;99457.75;;;19.06;35.22
54306;BME280;66145;45.188;5.712;2023-03-01T00:36:27;99393.72;;;18.65;35.52
54306;BME280;66145;45.188;5.712;2023-03-01T00:38:53;99473.63;;;19.18;35.23
54306;BME280;66145;45.188;5.712;2023-03-01T00:41:19;99424.06;;;18.91;35.39
54306;BME280;66145;45.188;5.712;2023-03-01T00:43:45;99419.44;;;18.78;35.55
54306;BME280;66145;45.188;5.712;2023-03-01T00:46:13;99449.97;;;18.99;35.40
54306;BME280;66145;45.188;5.712;2023-03-01T00:48:38;99413.97;;;18.78;35.25
54306;BME280;66145;45.188;5.712;2023-03-01T00:51:08;99476.06;;;19.19;35.26
54306;BME280;66145;45.188;5.712;2023-03-01T00:53:35;99453.50;;;18.99;35.45
54306;BME280;66145;45.188;5.712;2023-03-01T00:56:01;99443.97;;;18.97;35.51
54306;BME280;66145;45.188;5.712;2023-03-01T00:58:28;99484.91;;;19.16;35.46
54306;BME280;66145;45.188;5.712;2023-03-01T01:00:53;99414.56;;;18.52;36.02
54306;BME280;66145;45.188;5.712;2023-03-01T01:03:19;99446.66;;;18.74;35.84
54306;BME280;66145;45.188;5.712;2023-03-01T01:05:44;99441.53;;;18.95;35.70
54306;BME280;66145;45.188;5.712;2023-03-01T01:08:10;99463.53;;;19.27;35.52
54306;BME280;66145;45.188;5.712;2023-03-01T01:10:36;99451.94;;;19.30;35.83
54306;BME280;66145;45.188;5.712;2023-03-01T01:13:02;99453.31;;;19.41;35.78
54306;BME280;66145;45.188;5.712;2023-03-01T01:15:27;99409.13;;;19.20;35.60
54306;BME280;66145;45.188;5.712;2023-03-01T01:17:53;99446.25;;;19.49;35.62
54306;BME280;66145;45.188;5.712;2023-03-01T01:20:18;99430.09;;;19.48;35.69
54306;BME280;66145;45.188;5.712;2023-03-01T01:22:43;99445.84;;;19.65;35.75
54306;BME280;66145;45.188;5.712;2023-03-01T01:25:09;99411.06;;;19.51;35.74
54306;BME280;66145;45.188;5.712;2023-03-01T01:27:34;99438.59;;;19.69;35.88
54306;BME280;66145;45.188;5.712;2023-03-01T01:29:59;99430.81;;;19.62;35.74
54306;BME280;66145;45.188;5.712;2023-03-01T01:32:25;99442.00;;;19.74;35.80
54306;BME280;66145;45.188;5.712;2023-03-01T01:34:50;99438.28;;;19.70;35.80
54306;BME280;66145;45.188;5.712;2023-03-01T01:37:16;99429.69;;;19.63;36.05
54306;BME280;66145;45.188;5.712;2023-03-01T01:39:41;99443.63;;;19.75;36.05
54306;BME280;66145;45.188;5.712;2023-03-01T01:49:25;99421.03;;;19.79;35.97
54306;BME280;66145;45.188;5.712;2023-03-01T01:52:00;99383.97;;;19.58;36.19
54306;BME280;66145;45.188;5.712;2023-03-01T01:55:04;99408.75;;;19.76;36.28
54306;BME280;66145;45.188;5.712;2023-03-01T01:57:39;99416.34;;;19.79;36.18
54306;BME280;66145;45.188;5.712;2023-03-01T02:00:13;99409.75;;;19.80;35.91
54306;BME280;66145;45.188;5.712;2023-03-01T02:02:39;99411.34;;;19.81;36.00
54306;BME280;66145;45.188;5.712;2023-03-01T02:05:12;99410.22;;;19.82;36.00
54306;BME280;66145;45.188;5.712;2023-03-01T02:07:40;99392.47;;;19.80;36.26
54306;BME280;66145;45.188;5.712;2023-03-01T02:10:08;99409.91;;;19.84;36.20
54306;BME280;66145;45.188;5.712;2023-03-01T02:12:34;99379.22;;;19.73;36.30
54306;BME280;66145;45.188;5.712;2023-03-01T02:15:00;99376.78;;;19.71;36.30
54306;BME280;66145;45.188;5.712;2023-03-01T02:17:25;99353.50;;;19.60;36.68
54306;BME280;66145;45.188;5.712;2023-03-01T02:20:23;99363.88;;;19.72;36.26
54306;BME280;66145;45.188;5.712;2023-03-01T02:22:53;99352.91;;;19.72;36.06
54306;BME280;66145;45.188;5.712;2023-03-01T02:25:25;99382.00;;;19.90;36.03
54306;BME280;66145;45.188;5.712;2023-03-01T02:30:53;99345.94;;;19.74;36.37
54306;BME280;66145;45.188;5.712;2023-03-01T02:33:54;99346.44;;;19.76;36.21
54306;BME280;66145;45.188;5.712;2023-03-01T02:36:26;99368.78;;;19.93;36.14
54306;BME280;66145;45.188;5.712;2023-03-01T02:38:57;99364.75;;;19.90;36.36
54306;BME280;66145;45.188;5.712;2023-03-01T02:41:26;99348.56;;;19.80;36.22
54306;BME280;66145;45.188;5.712;2023-03-01T02:43:53;99359.91;;;19.96;36.08
54306;BME280;66145;45.188;5.712;2023-03-01T02:46:22;99326.13;;;19.78;36.21
54306;BME280;66145;45.188;5.712;2023-03-01T02:48:52;99357.16;;;19.96;36.09
54306;BME280;66145;45.188;5.712;2023-03-01T02:56:39;99323.19;;;19.83;36.07
54306;BME280;66145;45.188;5.712;2023-03-01T02:59:04;99314.31;;;19.77;36.13
54306;BME280;66145;45.188;5.712;2023-03-01T03:01:29;99341.69;;;20.00;36.15
54306;BME280;66145;45.188;5.712;2023-03-01T03:04:07;99337.19;;;20.04;36.03
54306;BME280;66145;45.188;5.712;2023-03-01T03:06:33;99328.13;;;20.03;36.11
54306;BME280;66145;45.188;5.712;2023-03-01T03:08:58;99305.81;;;19.87;36.16
54306;BME280;66145;45.188;5.712;2023-03-01T03:11:24;99325.69;;;20.02;36.06
54306;BME280;66145;45.188;5.712;2023-03-01T03:13:49;99306.91;;;19.86;36.17
54306;BME280;66145;45.188;5.712;2023-03-01T03:16:15;99303.97;;;19.83;36.11
54306;BME280;66145;45.188;5.712;2023-03-01T03:18:41;99276.34;;;19.61;36.57
54306;BME280;66145;45.188;5.712;2023-03-01T03:21:11;99302.16;;;19.60;36.18
54306;BME280;66145;45.188;5.712;2023-03-01T03:23:37;99302.19;;;19.69;35.85
54306;BME280;66145;45.188;5.712;2023-03-01T03:26:04;99315.84;;;19.92;35.71
54306;BME280;66145;45.188;5.712;2023-03-01T03:28:30;99296.47;;;19.88;35.32
54306;BME280;66145;45.188;5.712;2023-03-01T03:30:56;99246.16;;;19.61;35.02
54306;BME280;66145;45.188;5.712;2023-03-01T03:33:21;99323.63;;;20.16;35.02
54306;BME280;66145;45.188;5.712;2023-03-01T03:35:48;99329.59;;;20.18;34.95
54306;BME280;66145;45.188;5.712;2023-03-01T03:38:15;99292.28;;;20.09;34.85
54306;BME280;66145;45.188;5.712;2023-03-01T03:40:46;99260.06;;;19.83;34.88
54306;BME280;66145;45.188;5.712;2023-03-01T03:43:17;99272.56;;;19.98;34.67
54306;BME280;66145;45.188;5.712;2023-03-01T03:45:44;99323.94;;;20.24;34.77
54306;BME280;66145;45.188;5.712;2023-03-01T03:48:11;99291.94;;;20.01;34.70
54306;BME280;66145;45.188;5.712;2023-03-01T03:50:40;99318.44;;;20.24;34.85
54306;BME280;66145;45.188;5.712;2023-03-01T03:53:09;99300.66;;;20.12;34.82
54306;BME280;66145;45.188;5.712;2023-03-01T03:55:35;99300.19;;;20.10;35.14
54306;BME280;66145;45.188;5.712;2023-03-01T03:58:05;99289.38;;;20.05;34.74
54306;BME280;66145;45.188;5.712;2023-03-01T04:00:36;99324.25;;;20.22;34.99
54306;BME280;66145;45.188;5.712;2023-03-01T04:03:02;99263.00;;;19.86;34.93
54306;BME280;66145;45.188;5.712;2023-03-01T04:05:28;99312.78;;;20.20;35.09
54306;BME280;66145;45.188;5.712;2023-03-01T04:07:54;99310.88;;;20.20;34.85
54306;BME280;66145;45.188;5.712;2023-03-01T04:10:27;99293.56;;;20.11;34.91
54306;BME280;66145;45.188;5.712;2023-03-01T04:12:52;99283.88;;;20.05;34.95
54306;BME280;66145;45.188;5.712;2023-03-01T04:15:18;99245.56;;;19.82;34.78
54306;BME280;66145;45.188;5.712;2023-03-01T04:17:45;99304.06;;;20.18;34.72
54306;BME280;66145;45.188;5.712;2023-03-01T04:20:14;99296.31;;;20.20;34.89
54306;BME280;66145;45.188;5.712;2023-03-01T04:22:45;99241.97;;;19.82;34.67
54306;BME280;66145;45.188;5.712;2023-03-01T04:25:14;99295.66;;;20.23;34.85
54306;BME280;66145;45.188;5.712;2023-03-01T04:27:40;99268.06;;;20.11;35.04
54306;BME280;66145;45.188;5.712;2023-03-01T04:30:07;99245.75;;;19.95;34.62
54306;BME280;66145;45.188;5.712;2023-03-01T04:32:33;99287.72;;;20.21;34.80
54306;BME280;66145;45.188;5.712;2023-03-01T04:34:59;99282.91;;;20.18;34.91
54306;BME280;66145;45.188;5.712;2023-03-01T04:37:25;99289.19;;;20.28;34.92
54306;BME280;66145;45.188;5.712;2023-03-01T04:39:50;99300.66;;;20.30;34.75
54306;BME280;66145;45.188;5.712;2023-03-01T04:42:15;99292.09;;;20.31;34.83
54306;BME280;66145;45.188;5.712;2023-03-01T04:44:42;99295.34;;;20.33;34.60
54306;BME280;66145;45.188;5.712;2023-03-01T04:47:08;99285.97;;;20.26;34.53
54306;BME280;66145;45.188;5.712;2023-03-01T04:49:33;99299.69;;;20.34;34.74
54306;BME280;66145;45.188;5.712;2023-03-01T04:51:59;99274.66;;;20.18;34.76
54306;BME280;66145;45.188;5.712;2023-03-01T04:54:30;99298.56;;;20.35;34.75
54306;BME280;66145;45.188;5.712;2023-03-01T04:56:56;99292.59;;;20.33;34.76
54306;BME280;66145;45.188;5.712;2023-03-01T04:59:22;99268.06;;;20.19;34.61
54306;BME280;66145;45.188;5.712;2023-03-01T05:01:48;99292.75;;;20.37;34.48
54306;BME280;66145;45.188;5.712;2023-03-01T05:04:14;99296.94;;;20.34;34.60
54306;BME280;66145;45.188;5.712;2023-03-01T05:06:39;99297.78;;;20.35;34.71
54306;BME280;66145;45.188;5.712;2023-03-01T05:09:05;99295.81;;;20.35;34.81
54306;BME280;66145;45.188;5.712;2023-03-01T05:11:30;99273.84;;;20.18;34.73
54306;BME280;66145;45.188;5.712;2023-03-01T05:14:04;99293.72;;;20.32;34.54
54306;BME280;66145;45.188;5.712;2023-03-01T05:16:29;99286.44;;;20.28;34.84
54306;BME280;66145;45.188;5.712;2023-03-01T05:18:57;99267.22;;;20.19;34.65
54306;BME280;66145;45.188;5.712;2023-03-01T05:21:22;99291.16;;;20.36;34.57
54306;BME280;66145;45.188;5.712;2023-03-01T05:23:48;99219.09;;;19.86;34.82
54306;BME280;66145;45.188;5.712;2023-03-01T05:26:15;99287.72;;;20.39;34.66
54306;BME280;66145;45.188;5.712;2023-03-01T05:28:40;99215.25;;;19.87;34.50
54306;BME280;66145;45.188;5.712;2023-03-01T05:31:06;99253.00;;;20.17;34.50
54306;BME280;66145;45.188;5.712;2023-03-01T05:33:41;99266.75;;;20.26;34.47
54306;BME280;66145;45.188;5.712;2023-03-01T05:36:08;99288.84;;;20.38;34.63
54306;BME280;66145;45.188;5.712;2023-03-01T05:38:35;99279.03;;;20.37;34.66
54306;BME280;66145;45.188;5.712;2023-03-01T05:41:00;99272.38;;;20.38;34.48
54306;BME280;66145;45.188;5.712;2023-03-01T05:43:26;99280.16;;;20.36;34.63
54306;BME280;66145;45.188;5.712;2023-03-01T05:45:51;99268.19;;;20.32;34.80
54306;BME280;66145;45.188;5.712;2023-03-01T05:48:16;99254.78;;;20.21;34.56
54306;BME280;66145;45.188;5.712;2023-03-01T05:50:44;99248.97;;;20.23;34.37
54306;BME280;66145;45.188;5.712;2023-03-01T05:53:16;99251.72;;;20.23;34.63
54306;BME280;66145;45.188;5.712;2023-03-01T05:55:42;99266.44;;;20.27;34.74
54306;BME280;66145;45.188;5.712;2023-03-01T05:58:13;99262.88;;;20.27;34.48
54306;BME280;66145;45.188;5.712;2023-03-01T06:00:40;99273.22;;;20.30;34.69
54306;BME280;66145;45.188;5.712;2023-03-01T06:03:05;99258.19;;;20.18;34.50
54306;BME280;66145;45.188;5.712;2023-03-01T06:05:31;99277.09;;;20.29;34.48
54306;BME280;66145;45.188;5.712;2023-03-01T06:08:00;99272.56;;;20.24;34.69
54306;BME280;66145;45.188;5.712;2023-03-01T06:10:25;99263.84;;;20.22;34.68
54306;BME280;66145;45.188;5.712;2023-03-01T06:12:51;99274.34;;;20.29;34.67
54306;BME280;66145;45.188;5.712;2023-03-01T06:15:16;99271.94;;;20.27;34.79
54306;BME280;66145;45.188;5.712;2023-03-01T06:17:44;99278.22;;;20.36;34.75
54306;BME280;66145;45.188;5.712;2023-03-01T06:20:13;99271.91;;;20.36;34.74
54306;BME280;66145;45.188;5.712;2023-03-01T06:22:40;99282.06;;;20.44;34.57
54306;BME280;66145;45.188;5.712;2023-03-01T06:25:08;99260.13;;;20.27;34.54
54306;BME280;66145;45.188;5.712;2023-03-01T06:27:34;99258.97;;;20.28;34.64
54306;BME280;66145;45.188;5.712;2023-03-01T06:29:59;99256.25;;;20.28;34.46
54306;BME280;66145;45.188;5.712;2023-03-01T06:32:25;99259.81;;;20.28;34.78
54306;BME280;66145;45.188;5.712;2023-03-01T06:34:50;99247.03;;;20.24;34.66
54306;BME280;66145;45.188;5.712;2023-03-01T06:37:16;99243.50;;;20.23;34.65
54306;BME280;66145;45.188;5.712;2023-03-01T06:39:41;99249.47;;;20.34;34.60
54306;BME280;66145;45.188;5.712;2023-03-01T06:42:09;99244.47;;;20.27;34.50
54306;BME280;66145;45.188;5.712;2023-03-01T06:44:35;99253.50;;;20.28;34.49
54306;BME280;66145;45.188;5.712;2023-03-01T06:47:01;99255.94;;;20.29;34.49
54306;BME280;66145;45.188;5.712;2023-03-01T06:49:26;99274.31;;;20.38;34.57
54306;BME280;66145;45.188;5.712;2023-03-01T06:51:52;99274.97;;;20.43;34.51
54306;BME280;66145;45.188;5.712;2023-03-01T06:54:17;99283.34;;;20.47;34.39
54306;BME280;66145;45.188;5.712;2023-03-01T06:56:43;99264.81;;;20.35;34.46
54306;BME280;66145;45.188;5.712;2023-03-01T06:59:11;99286.59;;;20.49;34.46
54306;BME280;66145;45.188;5.712;2023-03-01T07:01:36;99293.88;;;20.45;34.60
54306;BME280;66145;45.188;5.712;2023-03-01T07:04:02;99291.28;;;20.48;34.58
54306;BME280;66145;45.188;5.712;2023-03-01T07:06:27;99289.97;;;20.46;34.67
54306;BME280;66145;45.188;5.712;2023-03-01T07:08:52;99294.03;;;20.48;34.55
54306;BME280;66145;45.188;5.712;2023-03-01T07:11:18;99292.91;;;20.49;34.45
54306;BME280;66145;45.188;5.712;2023-03-01T07:13:43;99289.81;;;20.51;34.37
54306;BME280;66145;45.188;5.712;2023-03-01T07:16:09;99261.88;;;20.31;34.33
54306;BME280;66145;45.188;5.712;2023-03-01T07:18:34;99292.91;;;20.49;34.45
54306;BME280;66145;45.188;5.712;2023-03-01T07:21:10;99281.28;;;20.44;34.69
54306;BME280;66145;45.188;5.712;2023-03-01T07:23:37;99294.03;;;20.48;34.61
54306;BME280;66145;45.188;5.712;2023-03-01T07:26:02;99295.16;;;20.47;34.61
54306;BME280;66145;45.188;5.712;2023-03-01T07:28:31;99292.09;;;20.49;34.43
54306;BME280;66145;45.188;5.712;2023-03-01T07:31:02;99298.41;;;20.49;34.61
54306;BME280;66145;45.188;5.712;2023-03-01T07:33:28;99249.47;;;20.16;34.74
54306;BME280;66145;45.188;5.712;2023-03-01T07:36:01;99254.31;;;20.19;34.53
54306;BME280;66145;45.188;5.712;2023-03-01T07:38:27;99275.47;;;20.36;34.45
54306;BME280;66145;45.188;5.712;2023-03-01T07:40:53;99261.25;;;20.26;34.61
54306;BME280;66145;45.188;5.712;2023-03-01T07:43:18;99258.84;;;20.06;35.42
54306;BME280;66145;45.188;5.712;2023-03-01T07:45:45;99269.00;;;20.06;34.72
54306;BME280;66145;45.188;5.712;2023-03-01T07:48:10;99250.13;;;20.04;34.65
54306;BME280;66145;45.188;5.712;2023-03-01T07:50:36;99269.00;;;20.24;34.68
54306;BME280;66145;45.188;5.712;2023-03-01T07:53:01;99290.31;;;20.44;34.59
54306;BME280;66145;45.188;5.712;2023-03-01T07:55:27;99286.78;;;20.44;34.46
54306;BME280;66145;45.188;5.712;2023-03-01T07:57:53;99293.69;;;20.50;34.43
54306;BME280;66145;45.188;5.712;2023-03-01T08:00:18;99276.59;;;20.44;34.31
54306;BME280;66145;45.188;5.712;2023-03-01T08:02:44;99264.31;;;20.42;34.30
54306;BME280;66145;45.188;5.712;2023-03-01T08:05:10;99275.78;;;20.52;34.74
54306;BME280;66145;45.188;5.712;2023-03-01T08:07:36;99239.25;;;20.34;33.95
54306;BME280;66145;45.188;5.712;2023-03-01T08:10:01;99270.59;;;20.51;34.14
54306;BME280;66145;45.188;5.712;2023-03-01T08:12:26;99213.13;;;20.19;34.29
54306;BME280;66145;45.188;5.712;2023-03-01T08:14:53;99273.31;;;20.60;34.17
54306;BME280;66145;45.188;5.712;2023-03-01T08:17:18;99271.41;;;20.51;34.29
54306;BME280;66145;45.188;5.712;2023-03-01T08:19:44;99276.06;;;20.60;34.33
54306;BME280;66145;45.188;5.712;2023-03-01T08:22:10;99273.03;;;20.52;34.18
54306;BME280;66145;45.188;5.712;2023-03-01T08:24:38;99277.38;;;20.54;34.37
54306;BME280;66145;45.188;5.712;2023-03-01T08:27:12;99247.34;;;20.31;34.27
54306;BME280;66145;45.188;5.712;2023-03-01T08:29:39;99274.66;;;20.45;34.27
54306;BME280;66145;45.188;5.712;2023-03-01T08:32:05;99250.91;;;20.23;34.35
54306;BME280;66145;45.188;5.712;2023-03-01T08:34:30;99281.28;;;20.35;34.40
54306;BME280;66145;45.188;5.712;2023-03-01T08:36:59;99250.44;;;20.12;34.49
54306;BME280;66145;45.188;5.712;2023-03-01T08:39:24;99282.72;;;20.32;34.47
54306;BME280;66145;45.188;5.712;2023-03-01T08:41:50;99259.63;;;20.16;34.38
54306;BME280;66145;45.188;5.712;2023-03-01T08:44:16;99263.84;;;20.22;34.38
54306;BME280;66145;45.188;5.712;2023-03-01T08:46:49;99267.88;;;20.33;34.59
54306;BME280;66145;45.188;5.712;2023-03-01T08:49:17;99219.13;;;20.04;34.40
54306;BME280;66145;45.188;5.712;2023-03-01T08:51:44;99276.59;;;20.27;34.58
54306;BME280;66145;45.188;5.712;2023-03-01T08:54:12;99250.59;;;20.06;34.45
54306;BME280;66145;45.188;5.712;2023-03-01T08:56:40;99277.72;;;20.26;34.30
54306;BME280;66145;45.188;5.712;2023-03-01T08:59:05;99268.19;;;20.23;34.11
54306;BME280;66145;45.188;5.712;2023-03-01T09:01:31;99256.41;;;20.23;34.14
54306;BME280;66145;45.188;5.712;2023-03-01T09:03:56;99244.28;;;20.15;34.03
54306;BME280;66145;45.188;5.712;2023-03-01T09:06:22;99272.06;;;20.31;34.03
54306;BME280;66145;45.188;5.712;2023-03-01T09:08:49;99268.69;;;20.34;34.05
54306;BME280;66145;45.188;5.712;2023-03-01T09:11:18;99248.34;;;20.17;34.40
54306;BME280;66145;45.188;5.712;2023-03-01T09:13:44;99258.34;;;20.31;34.21
54306;BME280;66145;45.188;5.712;2023-03-01T09:16:12;99262.84;;;20.35;33.87
54306;BME280;66145;45.188;5.712;2023-03-01T09:18:38;99240.75;;;20.14;34.18
54306;BME280;66145;45.188;5.712;2023-03-01T09:21:09;99252.53;;;20.15;34.10
54306;BME280;66145;45.188;5.712;2023-03-01T09:23:37;99237.84;;;20.11;34.23
54306;BME280;66145;45.188;5.712;2023-03-01T09:26:07;99258.50;;;20.17;34.38
54306;BME280;66145;45.188;5.712;2023-03-01T09:28:35;99252.53;;;20.15;34.13
54306;BME280;66145;45.188;5.712;2023-03-01T09:31:01;99267.06;;;19.89;35.45
54306;BME280;66145;45.188;5.712;2023-03-01T09:33:29;99240.34;;;19.05;35.43
54306;BME280;66145;45.188;5.712;2023-03-01T09:36:03;99236.84;;;18.82;35.54
54306;BME280;66145;45.188;5.712;2023-03-01T09:38:29;99265.31;;;18.95;35.95
54306;BME280;66145;45.188;5.712;2023-03-01T09:40:55;99241.81;;;18.80;36.08
54306;BME280;66145;45.188;5.712;2023-03-01T09:46:05;99225.72;;;18.78;35.76
54306;BME280;66145;45.188;5.712;2023-03-01T09:48:41;99249.88;;;18.99;36.03
54306;BME280;66145;45.188;5.712;2023-03-01T09:51:27;99241.63;;;18.99;36.15
54306;BME280;66145;45.188;5.712;2023-03-01T09:53:54;99251.66;;;19.04;36.10
54306;BME280;66145;45.188;5.712;2023-03-01T09:56:30;99243.59;;;19.07;36.21
54306;BME280;66145;45.188;5.712;2023-03-01T10:01:53;99241.38;;;19.18;36.19
54306;BME280;66145;45.188;5.712;2023-03-01T10:04:46;99225.25;;;19.25;35.95
54306;BME280;66145;45.188;5.712;2023-03-01T10:10:00;99229.16;;;19.24;35.92
54306;BME280;66145;45.188;5.712;2023-03-01T10:12:35;99207.00;;;19.12;35.92
54306;BME280;66145;45.188;5.712;2023-03-01T10:20:46;99209.66;;;19.35;35.11
54306;BME280;66145;45.188;5.712;2023-03-01T10:23:11;99215.91;;;19.26;35.19
54306;BME280;66145;45.188;5.712;2023-03-01T10:25:47;99198.69;;;19.35;34.50
54306;BME280;66145;45.188;5.712;2023-03-01T10:28:22;99194.50;;;19.55;34.21
54306;BME280;66145;45.188;5.712;2023-03-01T10:30:48;99198.56;;;19.84;33.98
54306;BME280;66145;45.188;5.712;2023-03-01T10:33:23;99212.16;;;20.06;33.96
54306;BME280;66145;45.188;5.712;2023-03-01T10:35:50;99192.16;;;19.97;34.19
54306;BME280;66145;45.188;5.712;2023-03-01T10:38:17;99196.19;;;20.09;34.00
54306;BME280;66145;45.188;5.712;2023-03-01T10:43:17;99198.06;;;20.26;33.87
54306;BME280;66145;45.188;5.712;2023-03-01T10:45:43;99183.06;;;20.23;34.10
54306;BME280;66145;45.188;5.712;2023-03-01T10:48:25;99170.97;;;20.15;34.12
54306;BME280;66145;45.188;5.712;2023-03-01T10:53:48;99194.84;;;20.32;34.18
54306;BME280;66145;45.188;5.712;2023-03-01T10:56:15;99168.06;;;20.20;34.10
54306;BME280;66145;45.188;5.712;2023-03-01T10:59:01;99191.13;;;20.37;34.10
54306;BME280;66145;45.188;5.712;2023-03-01T11:01:30;99171.91;;;20.28;34.22
54306;BME280;66145;45.188;5.712;2023-03-01T11:04:13;99166.44;;;20.28;34.35
54306;BME280;66145;45.188;5.712;2023-03-01T11:06:41;99151.59;;;20.20;34.19
54306;BME280;66145;45.188;5.712;2023-03-01T11:09:21;99186.09;;;20.39;34.27
54306;BME280;66145;45.188;5.712;2023-03-01T11:11:52;99142.06;;;20.09;34.25
54306;BME280;66145;45.188;5.712;2023-03-01T11:14:22;99181.28;;;20.36;34.22
54306;BME280;66145;45.188;5.712;2023-03-01T11:16:58;99170.81;;;19.85;34.73
54306;BME280;66145;45.188;5.712;2023-03-01T11:19:24;99134.91;;;19.03;34.66
54306;BME280;66145;45.188;5.712;2023-03-01T11:22:19;99161.84;;;19.09;34.46
54306;BME280;66145;45.188;5.712;2023-03-01T11:24:54;99160.38;;;19.03;34.93
54306;BME280;66145;45.188;5.712;2023-03-01T11:27:26;99129.97;;;18.82;35.33
54306;BME280;66145;45.188;5.712;2023-03-01T11:30:27;99158.69;;;18.93;35.05
54306;BME280;66145;45.188;5.712;2023-03-01T11:33:13;99156.75;;;18.85;34.32
54306;BME280;66145;45.188;5.712;2023-03-01T11:35:53;99157.06;;;18.83;34.90
54306;BME280;66145;45.188;5.712;2023-03-01T11:38:26;99133.78;;;18.63;34.29
54306;BME280;66145;45.188;5.712;2023-03-01T11:40:57;99107.78;;;18.52;34.65
54306;BME280;66145;45.188;5.712;2023-03-01T11:46:07;99135.63;;;18.85;35.10
54306;BME280;66145;45.188;5.712;2023-03-01T12:00:58;99105.94;;;19.54;34.41
54306;BME280;66145;45.188;5.712;2023-03-01T12:08:50;99105.94;;;19.45;35.02
54306;BME280;66145;45.188;5.712;2023-03-01T12:11:23;99106.09;;;19.40;34.70
54306;BME280;66145;45.188;5.712;2023-03-01T12:14:21;99099.94;;;19.35;34.69
54306;BME280;66145;45.188;5.712;2023-03-01T12:17:11;99074.13;;;19.09;34.99
54306;BME280;66145;45.188;5.712;2023-03-01T12:20:06;99098.19;;;19.21;35.27
54306;BME280;66145;45.188;5.712;2023-03-01T12:22:58;99044.41;;;18.85;35.17
54306;BME280;66145;45.188;5.712;2023-03-01T12:28:17;99083.00;;;19.15;35.49
54306;BME280;66145;45.188;5.712;2023-03-01T12:34:15;99044.56;;;18.89;35.09
54306;BME280;66145;45.188;5.712;2023-03-01T12:39:53;99093.31;;;19.18;35.13
54306;BME280;66145;45.188;5.712;2023-03-01T12:51:16;99083.47;;;19.08;35.35
54306;BME280;66145;45.188;5.712;2023-03-01T12:53:47;99016.81;;;18.64;35.25
54306;BME280;66145;45.188;5.712;2023-03-01T12:56:16;99073.78;;;19.02;35.58
54306;BME280;66145;45.188;5.712;2023-03-01T12:58:57;99069.75;;;18.99;35.06
54306;BME280;66145;45.188;5.712;2023-03-01T13:04:23;99058.63;;;18.96;35.34
54306;BME280;66145;45.188;5.712;2023-03-01T13:07:16;99046.34;;;18.84;35.56
54306;BME280;66145;45.188;5.712;2023-03-01T13:10:15;99058.13;;;18.94;35.50
54306;BME280;66145;45.188;5.712;2023-03-01T13:20:20;98970.34;;;18.50;35.12
54306;BME280;66145;45.188;5.712;2023-03-01T13:22:47;99010.38;;;18.77;35.31
54306;BME280;66145;45.188;5.712;2023-03-01T13:25:19;99030.53;;;18.90;35.53
54306;BME280;66145;45.188;5.712;2023-03-01T13:27:46;98999.09;;;18.79;35.31
54306;BME280;66145;45.188;5.712;2023-03-01T13:35:48;99035.38;;;18.93;35.03
54306;BME280;66145;45.188;5.712;2023-03-01T13:38:46;99034.56;;;18.93;35.32
54306;BME280;66145;45.188;5.712;2023-03-01T13:41:24;99032.97;;;18.92;35.26
54306;BME280;66145;45.188;5.712;2023-03-01T13:44:22;98993.44;;;18.66;35.44
54306;BME280;66145;45.188;5.712;2023-03-01T13:49:36;99031.47;;;18.85;35.32
54306;BME280;66145;45.188;5.712;2023-03-01T13:52:06;99019.56;;;18.81;35.16
54306;BME280;66145;45.188;5.712;2023-03-01T13:54:39;99021.50;;;18.81;35.34
54306;BME280;66145;45.188;5.712;2023-03-01T13:57:04;98994.25;;;18.67;35.30
54306;BME280;66145;45.188;5.712;2023-03-01T13:59:30;98972.63;;;18.57;35.57
54306;BME280;66145;45.188;5.712;2023-03-01T14:02:00;98939.56;;;18.35;35.63
54306;BME280;66145;45.188;5.712;2023-03-01T14:04:28;98994.06;;;18.63;35.55
54306;BME280;66145;45.188;5.712;2023-03-01T14:07:19;98987.94;;;18.66;36.21
54306;BME280;66145;45.188;5.712;2023-03-01T14:09:48;99015.22;;;18.89;35.90
54306;BME280;66145;45.188;5.712;2023-03-01T14:15:34;99015.56;;;19.05;35.49
54306;BME280;66145;45.188;5.712;2023-03-01T14:18:11;99015.38;;;18.75;36.37
54306;BME280;66145;45.188;5.712;2023-03-01T14:20:43;98985.22;;;18.08;36.90
54306;BME280;66145;45.188;5.712;2023-03-01T14:23:18;98953.16;;;17.69;37.52
54306;BME280;66145;45.188;5.712;2023-03-01T14:25:54;98987.38;;;17.89;37.54
54306;BME280;66145;45.188;5.712;2023-03-01T14:28:33;98999.09;;;17.89;37.77
54306;BME280;66145;45.188;5.712;2023-03-01T14:31:02;99023.53;;;18.08;38.05
54306;BME280;66145;45.188;5.712;2023-03-01T14:33:33;99023.22;;;18.10;38.11
54306;BME280;66145;45.188;5.712;2023-03-01T14:36:01;99007.09;;;18.00;37.85
54306;BME280;66145;45.188;5.712;2023-03-01T14:41:02;98942.28;;;17.55;37.88
54306;BME280;66145;45.188;5.712;2023-03-01T14:43:29;99028.06;;;18.13;37.43
54306;BME280;66145;45.188;5.712;2023-03-01T14:45:56;98993.50;;;17.94;37.75
54306;BME280;66145;45.188;5.712;2023-03-01T14:48:22;99029.31;;;18.07;38.06
54306;BME280;66145;45.188;5.712;2023-03-01T14:50:48;99004.03;;;18.01;37.89